Time;durP1;ratioP1;P1;durP2;ratioP2;P2;SDS_P1;SDS_P2;PMS_P1;PMS_P2;Temp;Humidity;BMP_temperature;BMP_pressure;BME280_temperature;BME280_humidity;BME280_pressure;Samples;Min_cycle;Max_cycle;Signal;HPM_P1;HPM_P2
2022/08/12 00:43:00;;;;;;;3.38;2.67;;;;;;;18.22;80.82;101116.16;7697545;23;20031;-88
2022/08/12 00:49:24;;;;;;;4.28;3.55;;;;;;;18.06;81.22;101123.91;7698834;23;20020;-88
2022/08/12 00:52:27;;;;;;;3.88;2.53;;;;;;;17.97;81.52;101120.44;7698888;23;20514;-88
2022/08/12 00:55:29;;;;;;;5.03;2.75;;;;;;;17.91;81.49;101115.00;7674244;23;20242;-88
2022/08/12 00:58:32;;;;;;;6.50;2.65;;;;;;;17.85;81.51;101113.81;7701076;23;20032;-88
2022/08/12 01:01:35;;;;;;;7.65;3.33;;;;;;;17.81;82.79;101117.72;7699958;23;20020;-88
2022/08/12 01:11:49;;;;;;;4.38;2.83;;;;;;;17.71;83.66;101120.38;7698229;23;20466;-88
2022/08/12 01:14:53;;;;;;;2.97;2.65;;;;;;;17.68;83.05;101112.84;7673019;23;20031;-88
2022/08/12 01:17:55;;;;;;;4.22;2.63;;;;;;;17.61;82.50;101111.81;7673717;23;20056;-87
2022/08/12 01:21:29;;;;;;;4.53;2.90;;;;;;;17.56;81.63;101114.06;7701668;23;20102;-88
2022/08/12 01:25:05;;;;;;;4.80;3.30;;;;;;;17.47;82.95;101115.81;7699839;23;20025;-88
2022/08/12 01:28:12;;;;;;;4.00;3.10;;;;;;;17.40;82.92;101109.53;7673395;23;20159;-87
2022/08/12 01:31:16;;;;;;;3.95;3.35;;;;;;;17.35;84.57;101115.22;7700582;23;20163;-88
2022/08/12 01:34:27;;;;;;;5.68;3.10;;;;;;;17.32;83.92;101120.75;7673547;23;20127;-87
2022/08/12 01:37:56;;;;;;;3.30;3.00;;;;;;;17.29;82.90;101115.00;7675476;23;20035;-87
2022/08/12 01:41:00;;;;;;;4.18;3.20;;;;;;;17.31;83.83;101119.09;7702345;23;20158;-88
2022/08/12 01:44:03;;;;;;;4.18;2.90;;;;;;;17.29;84.59;101118.47;7702648;23;20414;-88
2022/08/12 01:47:29;;;;;;;4.55;3.10;;;;;;;17.24;84.55;101112.81;7675208;23;20012;-87
2022/08/12 01:51:07;;;;;;;5.18;2.75;;;;;;;17.22;84.92;101113.00;7702770;23;20107;-88
2022/08/12 01:54:12;;;;;;;3.38;2.92;;;;;;;17.21;83.85;101113.13;7702873;23;20087;-88
2022/08/12 01:57:17;;;;;;;3.88;3.00;;;;;;;17.21;85.26;101108.72;7703029;23;20075;-88
2022/08/12 02:00:47;;;;;;;3.58;2.65;;;;;;;17.22;85.83;101113.00;7702158;23;20451;-88
2022/08/12 02:12:14;;;;;;;3.58;2.55;;;;;;;17.28;84.89;101097.66;7701464;23;20405;-88
2022/08/12 02:15:40;;;;;;;4.10;2.60;;;;;;;17.27;84.28;101104.69;7701638;23;20067;-88
2022/08/12 02:18:53;;;;;;;3.88;2.45;;;;;;;17.28;84.98;101101.09;7700492;23;20031;-88
2022/08/12 02:22:20;;;;;;;3.53;2.90;;;;;;;17.28;85.64;101108.94;7701839;23;20024;-88
2022/08/12 02:25:32;;;;;;;4.65;3.03;;;;;;;17.26;85.28;101110.06;7701870;23;20774;-88
2022/08/12 02:28:37;;;;;;;4.65;2.40;;;;;;;17.25;85.71;101104.03;7676166;23;20023;-88
2022/08/12 02:31:42;;;;;;;3.40;3.03;;;;;;;17.25;85.08;101104.03;7701455;23;20016;-88
2022/08/12 02:34:45;;;;;;;3.72;2.78;;;;;;;17.24;85.71;101107.59;7674803;23;20384;-88
2022/08/12 02:37:55;;;;;;;3.90;2.45;;;;;;;17.21;86.29;101097.44;7674790;23;20392;-87
2022/08/12 02:41:04;;;;;;;3.25;2.55;;;;;;;17.19;85.97;101099.38;7701506;23;20052;-88
2022/08/12 02:44:09;;;;;;;4.90;2.80;;;;;;;17.16;85.97;101107.53;7701377;23;20443;-88
2022/08/12 02:47:15;;;;;;;5.90;2.83;;;;;;;17.10;86.15;101101.09;7674569;23;20028;-87
2022/08/12 02:50:43;;;;;;;3.67;2.80;;;;;;;17.06;87.28;101099.75;7673859;23;20039;-87
2022/08/12 02:53:47;;;;;;;3.28;2.72;;;;;;;17.05;86.62;101103.34;7701048;23;20032;-87
2022/08/12 02:57:06;;;;;;;2.40;2.20;;;;;;;17.01;87.53;101110.66;7700372;23;20024;-88
2022/08/12 03:00:09;;;;;;;3.58;3.00;;;;;;;16.99;88.16;101101.31;7702554;23;20021;-87
2022/08/12 03:03:13;;;;;;;6.78;3.08;;;;;;;16.96;87.92;101097.22;7701992;23;20024;-88
2022/08/12 03:06:20;;;;;;;2.72;2.50;;;;;;;16.93;88.21;101107.97;7701127;23;20021;-87
2022/08/12 03:09:24;;;;;;;5.05;3.15;;;;;;;16.89;87.90;101114.47;7675514;23;20063;-87
2022/08/12 03:12:42;;;;;;;5.75;2.97;;;;;;;16.83;87.39;101098.56;7674171;23;20025;-87
2022/08/12 03:15:58;;;;;;;4.70;2.90;;;;;;;16.83;87.81;101103.78;7701762;23;20028;-87
2022/08/12 03:18:59;;;;;;;4.95;3.17;;;;;;;16.81;89.03;101100.50;7701387;23;20031;-87
2022/08/12 03:22:11;;;;;;;4.72;3.20;;;;;;;16.74;89.25;101105.44;7674203;23;20455;-87
2022/08/12 03:25:26;;;;;;;3.30;2.85;;;;;;;16.66;89.59;101098.34;7701040;23;20020;-87
2022/08/12 03:28:49;;;;;;;5.38;3.33;;;;;;;16.60;90.72;101104.16;7701296;23;20060;-87
2022/08/12 03:31:58;;;;;;;5.95;3.20;;;;;;;16.54;91.75;101095.09;7701612;23;20025;-88
2022/08/12 03:35:07;;;;;;;3.35;2.88;;;;;;;16.52;91.95;101101.44;7701595;23;20020;-87
2022/08/12 03:38:33;;;;;;;3.45;3.13;;;;;;;16.49;91.22;101101.75;7680128;23;20020;-87
2022/08/12 03:41:44;;;;;;;2.90;2.65;;;;;;;16.47;91.26;101093.22;7702199;23;20021;-87
2022/08/12 04:01:39;;;;;;;3.95;3.05;;;;;;;16.38;92.05;101096.72;7678889;23;20395;-87
2022/08/12 04:04:44;;;;;;;3.60;3.30;;;;;;;16.40;92.07;101102.59;7701386;23;20395;-88
2022/08/12 04:07:46;;;;;;;6.15;3.35;;;;;;;16.40;92.06;101095.59;7702414;23;20323;-87
2022/08/12 04:14:19;;;;;;;4.45;3.25;;;;;;;16.38;91.45;101094.09;7702558;23;20335;-87
2022/08/12 04:17:22;;;;;;;3.50;3.15;;;;;;;16.32;91.38;101092.88;7702417;23;20048;-87
2022/08/12 04:20:24;;;;;;;3.58;3.28;;;;;;;16.29;92.38;101101.81;7674455;23;20020;-87
2022/08/12 04:23:27;;;;;;;4.40;3.50;;;;;;;16.28;92.02;101100.19;7700314;23;20021;-87
2022/08/12 04:26:29;;;;;;;7.32;3.80;;;;;;;16.26;91.57;101089.06;7676352;23;20024;-87
2022/08/12 04:29:33;;;;;;;3.67;3.25;;;;;;;16.27;92.97;101100.31;7693653;23;20338;-87
2022/08/12 04:32:56;;;;;;;4.75;3.20;;;;;;;16.28;91.92;101102.81;7701564;23;20496;-87
2022/08/12 04:35:59;;;;;;;3.50;3.20;;;;;;;16.29;92.91;101099.22;7673457;23;20020;-87
2022/08/12 04:39:03;;;;;;;4.97;3.35;;;;;;;16.27;93.12;101098.56;7700215;23;20036;-87
2022/08/12 04:42:05;;;;;;;3.88;3.45;;;;;;;16.26;92.64;101094.28;7699894;23;20447;-87
2022/08/12 04:45:08;;;;;;;15.40;4.25;;;;;;;16.26;92.62;101096.09;7702578;23;20029;-87
2022/08/12 04:48:12;;;;;;;18.05;4.10;;;;;;;16.26;93.43;101090.84;7701181;23;20028;-87
2022/08/12 04:51:18;;;;;;;26.58;4.90;;;;;;;16.28;93.70;101102.00;7703278;23;20020;-87
2022/08/12 04:54:20;;;;;;;30.70;6.18;;;;;;;16.24;94.73;101100.63;7650574;23;20021;-87
2022/08/12 04:57:23;;;;;;;16.50;4.75;;;;;;;16.23;94.33;101096.38;7704171;23;20031;-87
2022/08/12 05:00:26;;;;;;;9.38;3.95;;;;;;;16.25;94.83;101097.88;7702631;23;20040;-87
2022/08/12 05:03:28;;;;;;;7.00;4.57;;;;;;;16.27;94.63;101098.56;7676448;23;20451;-87
2022/08/12 05:06:48;;;;;;;7.40;4.15;;;;;;;16.29;95.44;101098.41;7702035;23;20044;-87
2022/08/12 05:09:50;;;;;;;28.35;5.20;;;;;;;16.32;95.14;101100.72;7702857;23;20084;-87
2022/08/12 05:13:10;;;;;;;17.80;4.60;;;;;;;16.33;94.05;101102.38;7676612;23;20032;-87
2022/08/12 05:16:12;;;;;;;10.73;4.57;;;;;;;16.35;95.27;101106.50;7701555;23;20427;-87
2022/08/12 05:19:15;;;;;;;5.40;3.47;;;;;;;16.35;94.32;101100.44;7702741;23;20031;-88
2022/08/12 05:22:23;;;;;;;24.75;5.47;;;;;;;16.38;94.15;101108.00;7701532;23;20079;-87
2022/08/12 05:25:25;;;;;;;46.25;6.80;;;;;;;16.43;95.44;101111.00;7702464;23;20024;-87
2022/08/12 05:28:29;;;;;;;52.08;6.40;;;;;;;16.48;95.00;101100.91;7675316;23;20031;-88
2022/08/12 05:31:31;;;;;;;48.50;6.70;;;;;;;16.51;95.12;101111.06;7675184;23;20439;-87
2022/08/12 05:34:49;;;;;;;49.20;7.53;;;;;;;16.53;95.45;101108.31;7702479;23;20166;-87
2022/08/12 05:38:55;;;;;;;24.08;5.07;;;;;;;16.57;96.08;101114.88;7700681;23;20028;-87
2022/08/12 05:41:21;;;;;;;10.25;4.95;;;;;;;16.59;95.69;101107.72;7674336;23;20024;-87
2022/08/12 05:44:23;;;;;;;13.98;4.90;;;;;;;16.64;96.32;101115.13;7701193;23;20510;-87
2022/08/12 05:47:27;;;;;;;28.65;6.43;;;;;;;16.67;95.97;101118.31;7700566;23;20043;-88
2022/08/12 05:50:51;;;;;;;7.80;4.63;;;;;;;16.72;95.87;101112.59;7679779;23;20515;-87
2022/08/12 05:53:54;;;;;;;10.18;4.95;;;;;;;16.77;95.20;101121.69;7700581;23;20021;-87
2022/08/12 05:56:58;;;;;;;6.70;4.47;;;;;;;16.79;94.24;101132.00;7700635;23;20024;-87
2022/08/12 05:59:59;;;;;;;4.65;4.20;;;;;;;16.83;92.88;101135.16;7675723;23;20024;-87
2022/08/12 06:03:16;;;;;;;6.00;4.70;;;;;;;16.90;93.93;101136.22;7676182;23;20496;-87
2022/08/12 06:06:21;;;;;;;5.50;4.47;;;;;;;16.96;93.59;101140.84;7675088;23;20789;-87
2022/08/12 06:09:29;;;;;;;6.60;4.68;;;;;;;17.01;93.51;101133.38;7701319;23;20027;-87
2022/08/12 06:12:30;;;;;;;5.57;4.55;;;;;;;17.06;94.36;101131.13;7701967;23;20028;-88
2022/08/12 06:15:36;;;;;;;5.40;4.05;;;;;;;17.13;94.12;101131.38;7700741;23;20166;-87
2022/08/12 06:18:40;;;;;;;7.07;4.78;;;;;;;17.18;93.50;101116.88;7701451;23;20020;-87
2022/08/12 06:21:41;;;;;;;7.15;5.10;;;;;;;17.23;93.21;101127.72;7701429;23;20027;-87
2022/08/12 06:24:43;;;;;;;6.85;4.55;;;;;;;17.32;93.97;101130.41;7685098;23;20047;-88
2022/08/12 06:27:47;;;;;;;6.20;4.47;;;;;;;17.39;94.11;101128.81;7700237;23;20211;-87
2022/08/12 06:31:14;;;;;;;8.25;4.45;;;;;;;17.46;93.03;101135.09;7677891;23;20557;-87
2022/08/12 06:34:30;;;;;;;6.68;4.68;;;;;;;17.55;93.12;101144.66;7675717;23;20016;-88
2022/08/12 06:38:02;;;;;;;6.32;4.28;;;;;;;17.62;92.12;101140.47;7698311;23;20021;-87
2022/08/12 06:44:26;;;;;;;10.85;4.70;;;;;;;17.78;92.28;101142.38;7698497;23;20031;-88
2022/08/12 06:47:28;;;;;;;5.63;4.28;;;;;;;17.87;89.42;101132.81;7698958;23;20021;-88
2022/08/12 06:50:30;;;;;;;7.82;4.45;;;;;;;17.97;88.10;101133.53;7698442;23;20027;-88
2022/08/12 06:53:35;;;;;;;4.57;3.78;;;;;;;18.05;89.57;101132.75;7698730;23;20627;-87
2022/08/12 06:56:37;;;;;;;4.35;3.55;;;;;;;18.13;89.03;101139.84;7700073;23;20313;-88
2022/08/12 06:59:58;;;;;;;4.13;3.67;;;;;;;18.22;88.22;101138.91;7678474;23;20359;-88
2022/08/12 07:03:03;;;;;;;4.45;3.50;;;;;;;18.34;84.99;101142.09;7699157;23;20461;-88
2022/08/12 07:06:24;;;;;;;7.00;4.03;;;;;;;18.47;82.89;101142.47;7699267;23;20020;-88
2022/08/12 07:09:26;;;;;;;3.88;3.30;;;;;;;18.55;83.27;101139.88;7672256;23;20526;-88
2022/08/12 07:12:55;;;;;;;4.05;3.65;;;;;;;18.66;80.94;101144.84;7697446;23;20027;-88
2022/08/12 07:15:57;;;;;;;7.85;4.35;;;;;;;18.75;79.80;101145.66;7673632;23;20021;-88
2022/08/12 07:18:59;;;;;;;5.63;4.30;;;;;;;18.86;78.16;101148.03;7698552;23;20020;-87
2022/08/12 07:22:05;;;;;;;5.40;4.88;;;;;;;18.96;77.53;101153.16;7698845;23;20035;-87
2022/08/12 07:28:32;;;;;;;7.93;5.10;;;;;;;19.23;75.31;101151.22;7697452;23;20027;-88
2022/08/12 07:31:36;;;;;;;8.30;4.65;;;;;;;19.40;74.62;101154.69;7671676;23;20503;-88
2022/08/12 07:34:41;;;;;;;6.80;4.35;;;;;;;19.52;73.61;101150.75;7698645;23;20031;-88
2022/08/12 07:37:43;;;;;;;5.90;4.40;;;;;;;19.60;nan;101155.97;7699265;23;20481;-88
2022/08/12 07:40:45;;;;;;;5.82;4.55;;;;;;;19.70;72.72;101158.47;7698494;23;20282;-88
2022/08/12 07:43:50;;;;;;;6.43;4.57;;;;;;;19.80;71.74;101161.78;7699525;23;20020;-88
2022/08/12 07:46:52;;;;;;;7.63;4.53;;;;;;;19.98;70.46;101167.66;7698602;23;20328;-87
2022/08/12 07:49:55;;;;;;;6.15;4.65;;;;;;;20.07;69.93;101172.88;7698818;23;20027;-88
2022/08/12 07:53:06;;;;;;;5.63;4.10;;;;;;;20.18;69.32;101159.41;7674926;23;20020;-88
2022/08/12 07:56:09;;;;;;;6.93;4.78;;;;;;;20.33;69.32;101157.69;7698911;23;20024;-87
2022/08/12 07:59:12;;;;;;;8.30;4.10;;;;;;;20.46;68.59;101166.84;7699705;23;20592;-87
2022/08/12 08:02:15;;;;;;;6.50;4.18;;;;;;;20.60;67.11;101159.09;7701618;23;20020;-88
2022/08/12 08:05:18;;;;;;;4.20;3.72;;;;;;;20.77;66.17;101170.38;7701786;23;20024;-88
2022/08/12 08:08:23;;;;;;;7.22;4.10;;;;;;;20.90;65.36;101169.81;7648536;23;20099;-87
2022/08/12 08:14:47;;;;;;;4.88;3.58;;;;;;;21.21;63.25;101168.94;7678145;23;20547;-87
2022/08/12 08:18:05;;;;;;;4.40;3.10;;;;;;;21.36;62.03;101164.56;7700679;23;20051;-88
2022/08/12 08:21:09;;;;;;;5.97;3.17;;;;;;;21.47;61.61;101166.00;7701259;23;20021;-87
2022/08/12 08:24:17;;;;;;;7.22;3.65;;;;;;;21.60;61.09;101158.31;7675145;23;20031;-88
2022/08/12 08:27:20;;;;;;;4.57;3.50;;;;;;;21.74;60.20;101161.97;7701526;23;20021;-88
2022/08/12 08:30:22;;;;;;;8.35;3.30;;;;;;;21.89;60.36;101157.56;7700492;23;20459;-88
2022/08/12 08:33:24;;;;;;;3.90;3.08;;;;;;;21.98;59.09;101158.25;7700465;23;20040;-88
2022/08/12 08:36:47;;;;;;;4.90;3.10;;;;;;;22.14;57.46;101163.38;7700104;23;20020;-88
2022/08/12 08:39:49;;;;;;;4.95;2.97;;;;;;;22.26;57.16;101160.31;7700473;23;20024;-88
2022/08/12 08:42:51;;;;;;;3.95;2.72;;;;;;;22.41;55.95;101157.66;7699052;23;20020;-88
2022/08/12 08:46:04;;;;;;;6.55;3.22;;;;;;;22.51;56.07;101158.22;7700385;23;20020;-89
2022/08/12 08:49:07;;;;;;;4.72;3.08;;;;;;;22.66;54.91;101166.91;7700316;23;20023;-88
2022/08/12 08:52:10;;;;;;;8.02;2.83;;;;;;;22.86;53.49;101161.88;7702095;23;20027;-88
2022/08/12 08:55:14;;;;;;;7.53;2.55;;;;;;;23.07;50.14;101155.00;7650432;23;20032;-88
2022/08/12 08:58:21;;;;;;;4.45;2.80;;;;;;;23.22;49.38;101158.38;7701816;23;20020;-88
2022/08/12 09:01:24;;;;;;;9.45;2.90;;;;;;;23.31;48.52;101156.44;7701303;23;20099;-88
2022/08/12 09:04:26;;;;;;;5.00;3.30;;;;;;;23.44;49.97;101154.72;7700211;23;20133;-88
2022/08/12 09:07:49;;;;;;;4.82;2.38;;;;;;;23.54;48.25;101159.69;7679196;23;20020;-88
2022/08/12 09:14:50;;;;;;;6.40;2.25;;;;;;;23.80;45.76;101148.53;7701309;23;20021;-88
2022/08/12 09:17:54;;;;;;;5.38;2.47;;;;;;;23.91;45.65;101147.16;7701325;23;20024;-88
2022/08/12 09:21:00;;;;;;;2.67;2.10;;;;;;;24.01;45.56;101146.81;7674117;23;20050;-88
2022/08/12 09:24:06;;;;;;;5.15;2.05;;;;;;;24.11;43.83;101147.28;7701079;23;20526;-88
2022/08/12 09:27:15;;;;;;;5.53;2.17;;;;;;;24.25;44.48;101137.59;7675087;23;20075;-88
2022/08/12 09:30:17;;;;;;;3.78;1.90;;;;;;;24.42;42.32;101138.06;7700303;23;20593;-88
2022/08/12 09:33:39;;;;;;;3.95;2.13;;;;;;;24.59;42.17;101130.63;7700032;23;20095;-88
2022/08/12 09:37:02;;;;;;;3.28;2.25;;;;;;;24.73;41.86;101129.66;7701104;23;20063;-88
2022/08/12 09:40:23;;;;;;;3.00;1.92;;;;;;;24.91;42.40;101134.38;7699634;23;20027;-88
2022/08/12 09:47:28;;;;;;;3.63;1.98;;;;;;;25.11;42.49;101129.91;7700059;23;20703;-88
2022/08/12 09:50:35;;;;;;;4.50;2.13;;;;;;;25.26;41.27;101123.63;7700579;23;20020;-88
2022/08/12 09:53:38;;;;;;;4.03;2.30;;;;;;;25.37;41.77;101117.75;7699350;23;20510;-88
2022/08/12 09:56:42;;;;;;;6.10;2.05;;;;;;;25.47;40.30;101107.53;7700674;23;20044;-88
2022/08/12 10:00:07;;;;;;;4.53;2.45;;;;;;;25.61;39.52;101110.16;7700033;23;20021;-89
2022/08/12 10:03:20;;;;;;;5.47;2.50;;;;;;;25.63;39.72;101105.47;7672342;23;20055;-89
2022/08/12 10:06:33;;;;;;;3.10;2.10;;;;;;;25.67;39.36;101096.09;7699175;23;20020;-89
2022/08/12 10:09:37;;;;;;;3.20;1.77;;;;;;;25.76;38.77;101085.06;7699647;23;20020;-89
2022/08/12 10:16:43;;;;;;;2.83;1.92;;;;;;;26.10;37.48;101095.59;7699198;23;20031;-89
2022/08/12 10:19:45;;;;;;;3.53;1.92;;;;;;;26.18;38.11;101085.53;7698074;23;20102;-89
2022/08/12 10:23:00;;;;;;;2.60;1.92;;;;;;;26.27;38.43;101086.13;7700004;23;20021;-89
2022/08/12 10:29:46;;;;;;;2.75;1.83;;;;;;;26.34;38.88;101076.28;7673640;23;20021;-89
2022/08/12 10:33:08;;;;;;;3.58;1.80;;;;;;;26.52;37.84;101080.06;7672636;23;20395;-90
2022/08/12 10:36:32;;;;;;;4.43;1.58;;;;;;;26.58;36.17;101073.94;7699818;23;20066;-89
2022/08/12 10:39:44;;;;;;;3.42;1.85;;;;;;;26.68;36.17;101066.31;7700857;23;20542;-90
2022/08/12 10:46:28;;;;;;;3.22;2.00;;;;;;;26.97;35.24;101066.72;7699085;23;20806;-90
2022/08/12 10:49:33;;;;;;;2.13;1.90;;;;;;;27.09;34.88;101056.22;7699706;23;20028;-90
2022/08/12 10:52:55;;;;;;;3.78;2.13;;;;;;;27.30;35.81;101063.00;7699899;23;20023;-90
2022/08/12 10:55:58;;;;;;;2.53;1.95;;;;;;;27.31;34.85;101054.00;7700248;23;20017;-90
2022/08/12 10:59:04;;;;;;;3.70;1.90;;;;;;;27.30;34.26;101049.69;7698465;23;20020;-89
2022/08/12 11:02:12;;;;;;;2.40;2.00;;;;;;;27.39;35.38;101056.38;7699535;23;20418;-90
2022/08/12 11:05:35;;;;;;;2.05;1.70;;;;;;;27.53;34.94;101063.19;7699228;23;20439;-90
2022/08/12 11:08:59;;;;;;;3.88;1.70;;;;;;;27.59;34.01;101053.50;7677620;23;20077;-90
2022/08/12 11:12:07;;;;;;;4.10;2.00;;;;;;;27.63;34.06;101057.34;7647089;23;20031;-90
2022/08/12 11:15:29;;;;;;;3.50;2.03;;;;;;;27.82;33.16;101055.53;7653401;23;20035;-89
2022/08/12 11:18:51;;;;;;;3.13;1.75;;;;;;;27.99;32.51;101047.75;7675764;23;20134;-90
2022/08/12 11:21:56;;;;;;;2.08;1.60;;;;;;;28.16;33.10;101045.28;7701860;23;20016;-90
2022/08/12 11:25:07;;;;;;;2.60;1.90;;;;;;;28.30;32.37;101044.06;7650337;23;20431;-90
2022/08/12 11:28:12;;;;;;;4.82;1.60;;;;;;;28.39;31.91;101044.56;7674343;23;20342;-90
2022/08/12 11:31:15;;;;;;;2.92;2.00;;;;;;;28.38;31.92;101026.97;7699635;23;20107;-90
2022/08/12 11:34:17;;;;;;;7.40;2.03;;;;;;;28.50;31.64;101030.50;7701211;23;20021;-90
2022/08/12 11:37:39;;;;;;;2.50;1.48;;;;;;;28.52;31.76;101037.22;7701150;23;20099;-91
2022/08/12 11:41:03;;;;;;;1.92;1.77;;;;;;;28.54;32.94;101036.97;7701778;23;20016;-91
2022/08/12 11:44:05;;;;;;;2.85;1.77;;;;;;;28.56;32.17;101029.56;7674580;23;20020;-91
2022/08/12 11:47:27;;;;;;;2.80;1.52;;;;;;;28.68;32.01;101021.63;7700685;23;20091;-91
2022/08/12 11:50:31;;;;;;;5.75;1.58;;;;;;;28.82;33.50;101020.38;7701415;23;20443;-90
2022/08/12 11:53:34;;;;;;;3.85;1.65;;;;;;;29.01;33.02;101028.25;7700957;23;20184;-90
2022/08/12 11:57:00;;;;;;;3.08;1.67;;;;;;;29.19;32.87;101022.81;7673592;23;20025;-93
2022/08/12 12:00:22;;;;;;;5.20;1.80;;;;;;;29.27;32.86;101013.69;7678354;23;20330;-91
2022/08/12 12:03:44;;;;;;;3.35;1.80;;;;;;;29.46;31.83;101011.66;7699805;23;20021;-90
2022/08/12 12:06:47;;;;;;;3.90;1.55;;;;;;;29.57;32.34;101003.63;7700982;23;20021;-90
2022/08/12 12:09:53;;;;;;;3.55;1.80;;;;;;;29.58;29.66;101004.44;7699966;23;20023;-90
2022/08/12 12:12:56;;;;;;;4.75;1.92;;;;;;;29.65;31.95;100996.31;7700037;23;20021;-90
2022/08/12 12:15:58;;;;;;;2.72;1.83;;;;;;;29.85;30.82;101002.06;7701220;23;20013;-91
2022/08/12 12:19:00;;;;;;;2.67;1.70;;;;;;;30.08;30.98;100997.69;7649224;23;20020;-90
2022/08/12 12:22:02;;;;;;;1.80;1.70;;;;;;;30.30;30.46;100992.50;7701564;23;20021;-90
2022/08/12 12:25:05;;;;;;;3.15;1.88;;;;;;;30.54;31.24;101001.19;7700281;23;20467;-90
2022/08/12 12:28:14;;;;;;;;;;;;;;;30.75;30.50;101004.97;7676794;23;20435;-91
2022/08/12 12:31:36;;;;;;;4.40;1.80;;;;;;;30.92;29.83;101000.44;7700585;23;19919;-90
2022/08/12 12:34:59;;;;;;;4.03;1.98;;;;;;;31.11;29.76;100999.13;7673474;23;20567;-90
2022/08/12 12:38:21;;;;;;;4.68;2.00;;;;;;;31.23;29.69;100990.16;7678218;23;20016;-90
2022/08/12 12:41:26;;;;;;;3.25;1.60;;;;;;;31.39;29.03;101000.06;7698421;23;20016;-90
2022/08/12 12:44:48;;;;;;;3.85;1.55;;;;;;;31.54;28.92;100994.06;7696039;23;20099;-90
2022/08/12 12:48:16;;;;;;;3.15;1.90;;;;;;;31.68;28.75;100994.53;7700809;23;20478;-90
2022/08/12 12:51:17;;;;;;;3.88;1.90;;;;;;;31.73;28.51;100987.34;7674143;23;20024;-91
2022/08/12 12:54:51;;;;;;;4.53;1.73;;;;;;;31.78;27.75;100981.25;7703814;23;20020;-90
2022/08/12 12:57:57;;;;;;;1.90;1.60;;;;;;;31.85;27.27;100973.81;7674870;23;20187;-90
2022/08/12 13:01:02;;;;;;;1.85;1.75;;;;;;;31.98;27.65;100977.19;7672673;23;20090;-90
2022/08/12 13:04:25;;;;;;;2.90;1.77;;;;;;;32.07;28.58;100971.09;7700942;23;20017;-91
2022/08/12 13:07:27;;;;;;;5.47;2.05;;;;;;;32.15;28.11;100969.84;7700636;23;20491;-90
2022/08/12 13:10:52;;;;;;;4.05;1.70;;;;;;;32.40;27.08;100969.25;7699312;23;20103;-91
2022/08/12 13:13:56;;;;;;;4.55;1.80;;;;;;;32.50;27.15;100976.59;7650266;23;20331;-90
2022/08/12 13:17:16;;;;;;;3.47;1.75;;;;;;;32.68;27.96;100970.81;7700158;23;20024;-90
2022/08/12 13:20:21;;;;;;;4.53;1.80;;;;;;;32.83;28.47;100978.16;7702157;23;20585;-90
2022/08/12 13:23:40;;;;;;;6.27;1.67;;;;;;;33.02;27.79;100971.31;7700935;23;20021;-90
2022/08/12 13:26:45;;;;;;;4.53;1.80;;;;;;;33.13;27.51;100971.38;7703074;23;20028;-90
2022/08/12 13:29:47;;;;;;;3.22;1.73;;;;;;;33.22;28.57;100962.56;7702595;23;20020;-91
2022/08/12 13:32:54;;;;;;;3.85;1.80;;;;;;;33.44;25.82;100953.50;7701614;23;20462;-90
2022/08/12 13:35:59;;;;;;;5.82;2.10;;;;;;;33.54;25.86;100958.94;7701814;23;20123;-90
2022/08/12 13:39:08;;;;;;;3.05;2.03;;;;;;;33.63;25.54;100959.22;7701309;23;20051;-90
2022/08/12 13:42:12;;;;;;;3.35;1.90;;;;;;;33.64;24.89;100952.78;7675512;23;20427;-90
2022/08/12 13:45:15;;;;;;;2.28;1.60;;;;;;;33.68;26.27;100957.34;7702778;23;20024;-90
2022/08/12 13:48:17;;;;;;;3.15;1.70;;;;;;;33.80;26.87;100945.56;7675482;23;20028;-90
2022/08/12 13:51:20;;;;;;;2.80;1.48;;;;;;;33.89;25.59;100943.97;7675997;23;20806;-90
2022/08/12 13:54:25;;;;;;;4.40;1.63;;;;;;;33.96;24.43;100946.38;7702332;23;20040;-90
2022/08/12 13:57:42;;;;;;;3.70;1.73;;;;;;;34.07;25.74;100934.59;7702863;23;20451;-90
2022/08/12 14:00:50;;;;;;;3.50;1.75;;;;;;;34.14;25.26;100934.31;7676748;23;20020;-90
2022/08/12 14:03:53;;;;;;;2.67;1.60;;;;;;;34.23;25.58;100935.41;7703751;23;20016;-90
2022/08/12 14:06:55;;;;;;;1.98;1.60;;;;;;;34.32;25.97;100931.13;7676698;23;20025;-90
2022/08/12 14:13:25;;;;;;;2.60;1.70;;;;;;;34.47;25.00;100925.72;7702381;23;20024;-90
2022/08/12 14:16:47;;;;;;;3.28;1.58;;;;;;;34.58;24.95;100923.78;7679905;23;20451;-90
2022/08/12 14:23:14;;;;;;;3.17;1.50;;;;;;;34.60;25.20;100920.88;7702094;23;20021;-90
2022/08/12 14:26:38;;;;;;;2.95;1.80;;;;;;;34.63;24.41;100915.75;7702001;23;20761;-91
2022/08/12 14:29:40;;;;;;;6.20;2.05;;;;;;;34.62;25.41;100921.41;7702299;23;20083;-90
2022/08/12 14:33:04;;;;;;;4.90;1.70;;;;;;;34.68;24.90;100921.13;7695623;23;20074;-91
2022/08/12 14:36:12;;;;;;;;;;;;;;;34.70;23.80;100908.19;7702613;23;20387;-90
2022/08/12 14:39:16;;;;;;;2.92;1.63;;;;;;;34.80;24.77;100912.75;7701864;23;19920;-96
2022/08/12 14:42:19;;;;;;;3.17;1.70;;;;;;;34.85;23.73;100917.31;7702716;23;20142;-96
2022/08/12 14:45:21;;;;;;;2.30;1.42;;;;;;;34.98;24.25;100915.91;7677682;23;20315;-96
2022/08/12 14:48:24;;;;;;;2.75;1.52;;;;;;;35.01;24.50;100912.69;7706302;23;20135;-96
2022/08/12 14:51:29;;;;;;;1.65;1.50;;;;;;;35.09;23.57;100917.53;7706588;23;20426;-96
2022/08/12 14:54:51;;;;;;;4.32;1.70;;;;;;;35.14;24.40;100912.91;7703732;23;20016;-96
2022/08/12 14:58:14;;;;;;;2.63;1.70;;;;;;;35.24;23.51;100908.56;7702008;23;20043;-96
2022/08/12 15:04:38;;;;;;;2.22;1.60;;;;;;;35.18;23.38;100902.41;7702066;23;20017;-96
2022/08/12 15:07:46;;;;;;;1.92;1.70;;;;;;;35.12;23.77;100901.63;7702944;23;20268;-96
2022/08/12 15:10:53;;;;;;;2.75;1.77;;;;;;;35.06;23.37;100897.31;7702949;23;20027;-96
2022/08/12 15:13:57;;;;;;;4.57;1.80;;;;;;;34.98;24.14;100884.41;7702371;23;20027;-96
2022/08/12 15:16:59;;;;;;;1.80;1.20;;;;;;;34.97;24.15;100901.66;7703864;23;20024;-96
2022/08/12 15:20:02;;;;;;;3.08;1.70;;;;;;;35.09;25.36;100887.91;7675374;23;20040;-96
2022/08/12 15:23:29;;;;;;;1.50;1.40;;;;;;;35.15;23.44;100890.28;7701272;23;20024;-96
2022/08/12 15:26:37;;;;;;;3.17;1.73;;;;;;;35.13;24.35;100897.84;7705404;23;20090;-96
2022/08/12 15:29:41;;;;;;;5.88;1.50;;;;;;;35.16;24.21;100896.50;7701762;23;20019;-96
2022/08/12 15:32:46;;;;;;;2.75;1.63;;;;;;;35.15;23.68;100892.97;7701998;23;20025;-96
2022/08/12 15:35:50;;;;;;;5.32;1.70;;;;;;;35.14;24.45;100895.97;7675971;23;20343;-96
2022/08/12 15:38:55;;;;;;;3.45;1.67;;;;;;;35.21;23.69;100895.69;7703026;23;20028;-96
2022/08/12 15:41:57;;;;;;;2.13;1.40;;;;;;;35.08;24.03;100887.09;7701595;23;20020;-96
2022/08/12 15:45:04;;;;;;;1.58;1.40;;;;;;;35.04;24.19;100885.22;7701605;23;20040;-96
2022/08/12 15:48:10;;;;;;;1.90;1.48;;;;;;;35.06;24.38;100885.75;7703954;23;20465;-96
2022/08/12 15:51:33;;;;;;;1.63;1.50;;;;;;;35.05;23.86;100879.53;7702200;23;20020;-96
2022/08/12 15:54:58;;;;;;;2.60;1.48;;;;;;;35.01;23.75;100889.28;7701081;23;20489;-96
2022/08/12 15:58:12;;;;;;;1.90;1.20;;;;;;;35.03;23.48;100883.59;7701205;23;20013;-96
2022/08/12 16:01:18;;;;;;;1.85;1.00;;;;;;;35.12;23.89;100887.34;7702543;23;20066;-96
2022/08/12 16:04:20;;;;;;;3.60;1.25;;;;;;;35.09;23.04;100880.66;7702113;23;20028;-96
2022/08/12 16:07:23;;;;;;;1.20;1.10;;;;;;;35.00;23.44;100882.25;7702790;23;20067;-96
2022/08/12 16:10:32;;;;;;;2.55;1.10;;;;;;;34.99;24.60;100879.88;7704669;23;20016;-96
2022/08/12 16:13:35;;;;;;;1.30;1.20;;;;;;;34.98;23.51;100876.34;7677237;23;20034;-96
2022/08/12 16:16:37;;;;;;;3.13;1.30;;;;;;;34.92;24.37;100877.47;7702510;23;20021;-96
2022/08/12 16:19:41;;;;;;;2.55;1.05;;;;;;;34.94;23.82;100881.50;7700492;23;20027;-96
2022/08/12 16:23:07;;;;;;;3.42;1.13;;;;;;;34.91;24.62;100878.56;7704429;23;20514;-96
2022/08/12 16:26:33;;;;;;;2.47;1.00;;;;;;;34.91;22.77;100871.28;7703085;23;20027;-96
2022/08/12 16:29:38;;;;;;;2.90;1.13;;;;;;;34.99;23.88;100867.22;7704026;23;20021;-96
2022/08/12 16:32:57;;;;;;;4.85;1.13;;;;;;;35.18;22.69;100870.13;7703365;23;20405;-96
2022/08/12 16:35:59;;;;;;;1.95;1.05;;;;;;;35.16;23.08;100866.91;7706327;23;20329;-96
2022/08/12 16:39:03;;;;;;;5.55;1.30;;;;;;;35.14;23.94;100871.75;7703532;23;20348;-96